Time;durP1;ratioP1;P1;durP2;ratioP2;P2;SDS_P1;SDS_P2;PMS_P1;PMS_P2;Temp;Humidity;BMP_temperature;BMP_pressure;BME280_temperature;BME280_humidity;BME280_pressure;Samples;Min_cycle;Max_cycle;Signal;HPM_P1;HPM_P2
2024/03/23 00:00:48;;;;;;;6.07;3.40;;;;;;;10.77;64.34;94954.38;5085780;28;20196;-77
2024/03/23 00:03:14;;;;;;;3.23;2.87;;;;;;;10.77;64.71;94940.56;5080129;28;20192;-76
2024/03/23 00:05:40;;;;;;;5.50;3.20;;;;;;;10.78;64.01;94939.63;5093857;28;20200;-77
2024/03/23 00:08:07;;;;;;;4.47;2.83;;;;;;;10.78;64.41;94940.44;5088523;28;20227;-77
2024/03/23 00:10:36;;;;;;;3.63;3.20;;;;;;;10.67;64.50;94937.31;5087031;28;20205;-77
2024/03/23 00:13:03;;;;;;;4.07;3.00;;;;;;;10.68;65.06;94937.16;5088139;28;20630;-77
2024/03/23 00:15:34;;;;;;;4.17;3.10;;;;;;;10.76;64.97;94933.75;5092469;28;20188;-77
2024/03/23 00:18:00;;;;;;;3.27;2.97;;;;;;;10.85;64.37;94922.38;5085718;28;20573;-77
2024/03/23 00:20:27;;;;;;;5.20;2.90;;;;;;;10.93;64.15;94919.78;5085345;28;20181;-77
2024/03/23 00:22:53;;;;;;;5.70;2.57;;;;;;;10.97;64.22;94908.09;5079148;28;20607;-77
2024/03/23 00:25:19;;;;;;;6.73;2.90;;;;;;;10.94;64.34;94916.19;5072493;28;20200;-77
2024/03/23 00:27:46;;;;;;;4.70;2.90;;;;;;;11.00;64.49;94901.75;5085027;28;20221;-77
2024/03/23 00:30:12;;;;;;;3.33;2.60;;;;;;;11.07;64.03;94894.91;5090326;28;20842;-77
2024/03/23 00:32:39;;;;;;;5.40;2.60;;;;;;;11.12;63.87;94886.59;5090236;28;20193;-77
2024/03/23 00:35:05;;;;;;;5.17;3.67;;;;;;;11.07;64.09;94887.94;5075016;28;20189;-77
2024/03/23 00:37:31;;;;;;;4.10;2.20;;;;;;;11.12;63.86;94886.59;5060145;28;20208;-77
2024/03/23 00:39:58;;;;;;;5.77;2.43;;;;;;;11.09;63.42;94884.34;5092579;28;20180;-77
2024/03/23 00:42:24;;;;;;;3.77;2.37;;;;;;;11.11;63.70;94875.41;5084343;28;20207;-77
2024/03/23 00:44:50;;;;;;;3.03;2.40;;;;;;;11.12;63.41;94876.22;5085099;28;20699;-77
2024/03/23 00:47:17;;;;;;;6.13;2.67;;;;;;;11.12;62.98;94871.81;5084868;28;20209;-77
2024/03/23 00:49:43;;;;;;;3.53;2.67;;;;;;;11.01;63.76;94875.59;5092514;28;20199;-78
2024/03/23 00:52:08;;;;;;;3.23;2.57;;;;;;;11.00;63.73;94860.19;5062458;28;20864;-77
2024/03/23 00:54:34;;;;;;;5.83;2.60;;;;;;;10.91;63.66;94854.19;5082601;28;20197;-77
2024/03/23 00:56:59;;;;;;;5.47;2.60;;;;;;;10.85;63.84;94854.84;5070379;28;20215;-77
2024/03/23 00:59:28;;;;;;;3.87;3.10;;;;;;;10.88;63.74;94849.34;5087173;28;20181;-77
2024/03/23 01:01:53;;;;;;;3.43;2.50;;;;;;;10.90;63.66;94854.38;5075357;28;20191;-77
2024/03/23 01:04:18;;;;;;;5.83;2.70;;;;;;;10.69;64.42;94850.53;5082336;28;20627;-77
2024/03/23 01:06:44;;;;;;;4.13;2.80;;;;;;;10.85;63.77;94841.84;5089509;28;20642;-77
2024/03/23 01:09:10;;;;;;;4.73;2.73;;;;;;;10.89;63.80;94839.75;5084722;28;20535;-77
2024/03/23 01:11:36;;;;;;;3.03;2.70;;;;;;;10.59;65.08;94836.06;5065477;28;20185;-77
2024/03/23 01:14:01;;;;;;;4.10;2.40;;;;;;;10.77;64.79;94828.91;5071966;28;20641;-77
2024/03/23 01:16:27;;;;;;;5.27;3.10;;;;;;;10.81;64.55;94814.63;5058237;28;20184;-78
2024/03/23 01:18:52;;;;;;;3.73;2.60;;;;;;;10.78;64.50;94812.34;5047193;28;20184;-77
2024/03/23 01:21:17;;;;;;;3.43;2.40;;;;;;;10.72;64.84;94813.03;5069830;28;20184;-78
2024/03/23 01:23:43;;;;;;;4.60;3.13;;;;;;;10.70;65.34;94814.97;5053980;28;20216;-77
2024/03/23 01:26:08;;;;;;;2.70;2.50;;;;;;;10.69;65.56;94818.53;5068101;28;20242;-77
2024/03/23 01:28:33;;;;;;;3.57;2.40;;;;;;;10.80;65.39;94810.41;5059252;28;20579;-77
2024/03/23 01:30:59;;;;;;;3.00;2.30;;;;;;;10.81;65.82;94809.41;5073889;28;20196;-77
2024/03/23 01:33:24;;;;;;;3.13;2.43;;;;;;;10.87;65.93;94810.56;5065302;28;20176;-77
2024/03/23 01:35:50;;;;;;;3.53;2.43;;;;;;;10.97;65.37;94795.56;5069433;28;20179;-77
2024/03/23 01:38:15;;;;;;;2.80;2.20;;;;;;;11.06;65.42;94789.38;5046805;28;20223;-77
2024/03/23 01:40:40;;;;;;;2.67;2.23;;;;;;;11.17;65.67;94785.59;5076487;28;20185;-77
2024/03/23 01:43:10;;;;;;;3.90;2.43;;;;;;;11.40;65.01;94789.06;5081957;28;20192;-77
2024/03/23 01:45:37;;;;;;;2.70;1.87;;;;;;;11.59;64.47;94780.81;5068173;28;20192;-77
2024/03/23 01:48:03;;;;;;;7.20;2.03;;;;;;;11.64;64.22;94778.47;5067879;28;20270;-77
2024/03/23 01:50:28;;;;;;;5.03;1.90;;;;;;;11.77;63.82;94780.53;5069827;28;20558;-77
2024/03/23 01:52:54;;;;;;;3.13;1.70;;;;;;;11.92;63.46;94780.59;5062209;28;20185;-77
2024/03/23 01:55:20;;;;;;;2.17;1.63;;;;;;;11.96;63.11;94771.47;5067399;28;20181;-77
2024/03/23 01:57:45;;;;;;;2.70;1.90;;;;;;;12.03;63.03;94777.59;5064261;28;20893;-77
2024/03/23 02:00:12;;;;;;;2.23;1.80;;;;;;;11.94;63.08;94767.44;5088951;28;20185;-77
2024/03/23 02:02:45;;;;;;;2.87;1.97;;;;;;;12.10;62.58;94757.69;5059140;28;20544;-77
2024/03/23 02:05:11;;;;;;;3.20;1.77;;;;;;;12.09;62.75;94756.06;5063726;28;20534;-77
2024/03/23 02:07:38;;;;;;;2.60;1.97;;;;;;;12.03;63.17;94759.38;5063887;28;20209;-77
2024/03/23 02:10:03;;;;;;;5.03;1.93;;;;;;;12.06;63.01;94759.03;5059843;28;20654;-77
2024/03/23 02:12:29;;;;;;;4.93;2.10;;;;;;;12.04;63.18;94761.00;5059780;28;20183;-77
2024/03/23 02:14:54;;;;;;;4.83;1.87;;;;;;;12.03;63.40;94764.59;5056439;28;20179;-77
2024/03/23 02:17:19;;;;;;;4.43;1.90;;;;;;;12.15;62.96;94764.97;5082740;28;20703;-77
2024/03/23 02:19:46;;;;;;;2.60;2.10;;;;;;;12.13;63.09;94759.13;5067211;28;20276;-77
2024/03/23 02:22:11;;;;;;;2.43;1.97;;;;;;;12.12;63.02;94754.91;5053858;28;20188;-77
2024/03/23 02:24:37;;;;;;;1.50;1.40;;;;;;;12.22;62.95;94744.25;5071458;28;20193;-78
2024/03/23 02:27:03;;;;;;;3.10;2.10;;;;;;;12.21;62.97;94750.44;5062991;28;20209;-77
2024/03/23 02:29:31;;;;;;;3.63;1.90;;;;;;;12.25;63.04;94743.88;5064434;28;20188;-77
2024/03/23 02:31:58;;;;;;;4.13;1.97;;;;;;;12.24;63.01;94750.09;5057763;28;20185;-77
2024/03/23 02:34:24;;;;;;;3.33;2.20;;;;;;;12.23;62.94;94745.88;5088295;28;20176;-77
2024/03/23 02:36:49;;;;;;;3.60;1.93;;;;;;;12.13;63.39;94740.91;5051580;28;20203;-77
2024/03/23 02:39:14;;;;;;;3.10;2.27;;;;;;;12.04;63.62;94745.38;5083481;28;20185;-77
2024/03/23 02:41:40;;;;;;;2.80;2.00;;;;;;;12.04;63.62;94739.38;5073435;28;20844;-77
2024/03/23 02:44:05;;;;;;;2.33;1.80;;;;;;;12.05;63.45;94744.41;5085888;28;20207;-78
2024/03/23 02:46:31;;;;;;;1.93;1.80;;;;;;;11.90;64.27;94740.94;5084536;28;20658;-77
2024/03/23 02:48:56;;;;;;;3.80;2.00;;;;;;;11.98;64.08;94730.47;5072843;28;20204;-77
2024/03/23 02:51:22;;;;;;;3.83;2.50;;;;;;;11.97;64.38;94735.84;5078533;28;20172;-77
2024/03/23 02:53:47;;;;;;;2.37;2.00;;;;;;;12.02;64.40;94731.75;5086218;28;20192;-77
2024/03/23 02:56:15;;;;;;;5.03;2.33;;;;;;;12.05;64.70;94718.38;5073798;28;20177;-77
2024/03/23 02:58:41;;;;;;;3.10;1.90;;;;;;;12.03;64.78;94712.53;5058564;28;20708;-78
2024/03/23 03:01:06;;;;;;;4.53;2.60;;;;;;;12.08;64.87;94710.19;5089022;28;20177;-77
2024/03/23 03:03:32;;;;;;;2.57;2.17;;;;;;;12.17;64.22;94706.53;5064695;28;20271;-77
2024/03/23 03:05:58;;;;;;;3.77;2.40;;;;;;;12.05;64.90;94713.16;5077387;28;20181;-77
2024/03/23 03:08:23;;;;;;;3.40;2.50;;;;;;;12.00;65.29;94715.47;5088058;28;20278;-77
2024/03/23 03:10:48;;;;;;;3.47;1.93;;;;;;;12.11;64.85;94707.25;5057978;28;20241;-77
2024/03/23 03:13:13;;;;;;;4.13;2.60;;;;;;;12.04;65.77;94716.75;5052435;28;20181;-77
2024/03/23 03:15:43;;;;;;;2.37;2.00;;;;;;;12.18;65.37;94721.16;5077754;28;20185;-78
2024/03/23 03:18:08;;;;;;;2.50;2.30;;;;;;;12.29;65.40;94724.34;5077867;28;20362;-77
2024/03/23 03:20:34;;;;;;;3.80;2.37;;;;;;;12.32;65.16;94734.38;5071824;28;20253;-77
2024/03/23 03:23:00;;;;;;;2.93;2.20;;;;;;;12.39;64.99;94717.88;5090414;28;20207;-77
2024/03/23 03:25:25;;;;;;;4.33;3.20;;;;;;;12.29;65.90;94719.13;5074701;28;20238;-77
2024/03/23 03:27:50;;;;;;;5.37;3.20;;;;;;;12.43;65.24;94705.31;5063639;28;20208;-77
2024/03/23 03:30:16;;;;;;;4.47;3.13;;;;;;;12.33;65.67;94694.34;5075552;28;20302;-77
2024/03/23 03:32:41;;;;;;;4.67;2.80;;;;;;;12.26;65.70;94694.25;5091338;28;20185;-77
2024/03/23 03:35:07;;;;;;;5.50;3.17;;;;;;;12.30;65.63;94673.91;5090843;28;20195;-77
2024/03/23 03:37:32;;;;;;;4.37;3.00;;;;;;;12.35;65.29;94671.53;5081799;28;20626;-77
2024/03/23 03:39:57;;;;;;;5.50;3.30;;;;;;;12.38;65.56;94663.38;5085811;28;20259;-77
2024/03/23 03:42:22;;;;;;;6.40;3.47;;;;;;;12.31;65.89;94655.47;5068496;28;20180;-77
2024/03/23 03:44:48;;;;;;;4.03;3.23;;;;;;;12.36;65.73;94649.72;5068587;28;20530;-77
2024/03/23 03:47:13;;;;;;;5.83;3.60;;;;;;;12.45;65.58;94646.84;5065717;28;20282;-77
2024/03/23 03:49:38;;;;;;;6.53;3.53;;;;;;;12.41;65.99;94643.00;5071521;28;20181;-77
2024/03/23 03:52:04;;;;;;;6.77;3.57;;;;;;;12.56;65.44;94643.00;5067366;28;20243;-78
2024/03/23 03:54:29;;;;;;;4.20;3.43;;;;;;;12.62;65.88;94655.28;5051153;28;20184;-77
2024/03/23 03:56:54;;;;;;;7.83;3.60;;;;;;;12.46;67.41;94661.50;5066423;28;20310;-77
2024/03/23 03:59:20;;;;;;;4.00;3.60;;;;;;;12.17;68.67;94670.09;5073615;28;20596;-77
2024/03/23 04:01:45;;;;;;;7.90;4.47;;;;;;;12.00;71.46;94689.47;5068273;28;20192;-77
2024/03/23 04:04:11;;;;;;;9.07;5.83;;;;;;;11.86;73.29;94698.06;5066462;28;20706;-77
2024/03/23 04:06:36;;;;;;;11.10;7.47;;;;;;;11.53;76.08;94697.47;5061751;28;20209;-78
2024/03/23 04:09:02;;;;;;;10.03;7.90;;;;;;;11.68;76.53;94700.13;5081875;28;20276;-78
2024/03/23 04:11:27;;;;;;;11.77;8.80;;;;;;;11.44;78.49;94695.91;5072082;28;20276;-78
2024/03/23 04:13:52;;;;;;;13.93;11.00;;;;;;;11.11;80.42;94688.31;5094780;28;20219;-77
2024/03/23 04:16:26;;;;;;;12.97;10.97;;;;;;;11.16;81.39;94699.03;5073820;28;20721;-77
2024/03/23 04:18:51;;;;;;;15.93;12.57;;;;;;;10.89;82.57;94697.72;5060078;28;20195;-77
2024/03/23 04:21:17;;;;;;;17.63;12.60;;;;;;;11.01;82.79;94688.53;5072042;28;20184;-78
2024/03/23 04:23:42;;;;;;;15.20;13.27;;;;;;;10.83;83.28;94682.00;5079075;28;20234;-78
2024/03/23 04:26:07;;;;;;;18.60;14.67;;;;;;;10.96;81.98;94690.06;5081479;28;20200;-78
2024/03/23 04:28:33;;;;;;;20.13;15.27;;;;;;;10.82;82.23;94686.38;5068335;28;20208;-78
2024/03/23 04:30:58;;;;;;;19.53;14.70;;;;;;;10.76;82.50;94705.22;5080274;28;20539;-78
2024/03/23 04:33:23;;;;;;;19.93;14.57;;;;;;;10.55;82.79;94710.19;5062977;28;20212;-78
2024/03/23 04:35:49;;;;;;;21.57;14.70;;;;;;;10.58;82.06;94710.66;5077523;28;20207;-78
2024/03/23 04:38:16;;;;;;;22.77;15.57;;;;;;;10.42;81.73;94708.94;5064543;28;20608;-78
2024/03/23 04:40:41;;;;;;;18.30;14.83;;;;;;;10.37;81.58;94698.22;5081410;28;20215;-77
2024/03/23 04:43:07;;;;;;;22.73;14.83;;;;;;;10.35;81.75;94695.00;5052239;28;20685;-78
2024/03/23 04:45:32;;;;;;;19.93;15.33;;;;;;;10.25;82.37;94689.19;5060929;28;20187;-78
2024/03/23 04:47:57;;;;;;;20.27;14.73;;;;;;;10.20;82.86;94691.44;5068430;28;20219;-78
2024/03/23 04:50:23;;;;;;;23.07;15.73;;;;;;;10.23;82.82;94693.72;5081154;28;20662;-77
2024/03/23 04:52:48;;;;;;;19.10;14.83;;;;;;;10.28;82.86;94686.25;5070925;28;20606;-77
2024/03/23 04:55:14;;;;;;;20.67;15.17;;;;;;;10.14;82.90;94686.91;5071541;28;20721;-78
2024/03/23 04:57:39;;;;;;;22.13;15.80;;;;;;;10.17;82.76;94689.19;5092931;28;20264;-77
2024/03/23 05:00:16;;;;;;;22.10;15.40;;;;;;;10.16;83.14;94687.56;5067254;28;20271;-78
2024/03/23 05:02:42;;;;;;;18.40;13.87;;;;;;;10.26;82.90;94714.16;5057065;28;20252;-77
2024/03/23 05:05:07;;;;;;;19.53;14.63;;;;;;;10.29;82.71;94718.19;5056508;28;20239;-78
2024/03/23 05:07:32;;;;;;;20.63;14.63;;;;;;;10.06;83.94;94718.03;5073262;28;20208;-77
2024/03/23 05:09:58;;;;;;;22.60;14.73;;;;;;;10.04;83.45;94713.03;5070743;28;20196;-76
2024/03/23 05:12:24;;;;;;;22.20;14.73;;;;;;;10.09;83.43;94702.97;5059035;28;20180;-77
2024/03/23 05:14:49;;;;;;;18.80;14.53;;;;;;;10.16;83.37;94713.50;5096926;28;20208;-77
2024/03/23 05:17:15;;;;;;;20.00;14.30;;;;;;;10.10;83.50;94719.34;5067545;28;20201;-78
2024/03/23 05:19:40;;;;;;;18.50;13.17;;;;;;;9.96;83.60;94718.22;5054919;28;20216;-78
2024/03/23 05:22:06;;;;;;;18.63;12.80;;;;;;;9.74;85.06;94717.09;5071224;28;20274;-78
2024/03/23 05:24:31;;;;;;;15.60;12.53;;;;;;;9.42;85.90;94725.66;5059505;28;20272;-77
2024/03/23 05:26:59;;;;;;;14.10;10.37;;;;;;;9.52;86.12;94715.16;5061380;28;20776;-78
2024/03/23 05:29:24;;;;;;;11.73;7.87;;;;;;;9.33;84.64;94722.25;5069793;28;20181;-78
2024/03/23 05:31:51;;;;;;;11.80;8.13;;;;;;;9.31;84.59;94724.22;5064873;28;20175;-78
2024/03/23 05:34:17;;;;;;;9.87;8.03;;;;;;;9.30;84.09;94726.97;5059821;28;20177;-78
2024/03/23 05:36:42;;;;;;;10.43;7.23;;;;;;;9.33;83.69;94727.44;5072958;28;20200;-78
2024/03/23 05:39:08;;;;;;;12.77;6.40;;;;;;;9.24;83.39;94741.34;5052595;28;20189;-78
2024/03/23 05:41:35;;;;;;;9.13;6.53;;;;;;;9.03;83.38;94731.44;5062808;28;20181;-78
2024/03/23 05:44:01;;;;;;;8.23;6.03;;;;;;;9.00;83.87;94731.72;5056163;28;20611;-78
2024/03/23 05:46:26;;;;;;;7.17;5.33;;;;;;;8.97;83.25;94733.84;5070851;28;20195;-78
2024/03/23 05:48:51;;;;;;;8.00;5.43;;;;;;;8.91;83.55;94731.88;5096662;28;20209;-78
2024/03/23 05:51:17;;;;;;;7.87;5.57;;;;;;;8.99;83.32;94726.72;5085311;28;20693;-78
2024/03/23 05:53:42;;;;;;;6.93;4.80;;;;;;;9.00;83.69;94731.72;5050868;28;20192;-78
2024/03/23 05:56:07;;;;;;;7.63;4.40;;;;;;;8.74;83.75;94739.56;5070776;28;20647;-78
2024/03/23 05:58:33;;;;;;;4.90;4.37;;;;;;;8.88;83.37;94740.78;5057427;28;20939;-78
2024/03/23 06:01:00;;;;;;;3.93;3.40;;;;;;;8.68;83.36;94747.16;5074546;28;20185;-77
2024/03/23 06:03:26;;;;;;;4.77;3.20;;;;;;;8.83;83.30;94755.13;5058911;28;20188;-77
2024/03/23 06:05:52;;;;;;;3.23;2.20;;;;;;;8.60;83.13;94765.25;5062824;28;20176;-77
2024/03/23 06:08:18;;;;;;;3.57;2.10;;;;;;;8.45;82.87;94783.91;5077592;28;20208;-77
2024/03/23 06:10:43;;;;;;;3.23;1.83;;;;;;;8.41;83.00;94782.63;5053878;28;20184;-77
2024/03/23 06:13:08;;;;;;;2.93;1.50;;;;;;;8.33;82.56;94795.47;5064101;28;20244;-77
2024/03/23 06:15:37;;;;;;;1.60;1.40;;;;;;;8.19;82.91;94788.25;5091584;28;20194;-80
2024/03/23 06:18:03;;;;;;;1.77;1.67;;;;;;;8.41;82.59;94792.16;5068515;28;20238;-77
2024/03/23 06:20:29;;;;;;;1.00;0.90;;;;;;;8.25;82.82;94792.81;5063037;28;20188;-77
2024/03/23 06:22:54;;;;;;;1.10;1.00;;;;;;;8.34;82.54;94804.03;5074534;28;20181;-76
2024/03/23 06:25:19;;;;;;;1.27;0.80;;;;;;;8.29;82.51;94801.09;5071664;28;20176;-79
2024/03/23 06:27:45;;;;;;;1.23;1.10;;;;;;;8.10;83.00;94808.06;5050263;28;20208;-79
2024/03/23 06:30:11;;;;;;;1.23;1.10;;;;;;;8.03;84.12;94807.03;5073639;28;20685;-79
2024/03/23 06:32:36;;;;;;;1.00;0.90;;;;;;;8.24;83.03;94817.88;5072376;28;20260;-79
2024/03/23 06:35:07;;;;;;;1.30;1.20;;;;;;;8.18;82.72;94818.47;5077095;28;20268;-76
2024/03/23 06:37:33;;;;;;;1.10;1.00;;;;;;;8.27;83.00;94827.09;5082016;28;20568;-77
2024/03/23 06:39:58;;;;;;;1.30;1.13;;;;;;;8.08;83.98;94833.28;5052625;28;20192;-77
2024/03/23 06:42:24;;;;;;;0.93;0.90;;;;;;;8.18;83.29;94834.00;5068058;28;20180;-77
2024/03/23 06:44:49;;;;;;;0.87;0.87;;;;;;;8.27;83.32;94842.63;5065169;28;20249;-77
2024/03/23 06:47:14;;;;;;;1.00;0.90;;;;;;;8.49;82.32;94851.72;5049777;28;20242;-77
2024/03/23 06:49:40;;;;;;;1.07;0.80;;;;;;;8.64;81.61;94855.34;5071735;28;20185;-80
2024/03/23 06:52:05;;;;;;;0.60;0.60;;;;;;;8.57;81.58;94863.88;5067408;28;20674;-77
2024/03/23 06:54:30;;;;;;;0.80;0.80;;;;;;;8.27;82.62;94878.03;5072674;28;20192;-77
2024/03/23 06:56:56;;;;;;;1.07;0.70;;;;;;;8.20;82.82;94886.38;5050287;28;20205;-77
2024/03/23 06:59:21;;;;;;;1.00;0.60;;;;;;;7.80;82.71;94886.03;5075985;28;20181;-80
2024/03/23 07:01:46;;;;;;;1.00;0.90;;;;;;;7.99;82.58;94879.91;5079609;28;20180;-81
2024/03/23 07:04:12;;;;;;;1.00;0.90;;;;;;;8.07;82.73;94898.88;5060823;28;20177;-80
2024/03/23 07:06:44;;;;;;;0.93;0.90;;;;;;;7.64;84.11;94892.66;5090912;28;20212;-80
2024/03/23 07:09:10;;;;;;;0.97;0.77;;;;;;;8.01;83.69;94891.72;5069997;28;20181;-77
2024/03/23 07:11:35;;;;;;;0.80;0.80;;;;;;;7.84;84.04;94882.16;5078273;28;20188;-79
2024/03/23 07:14:00;;;;;;;0.80;0.80;;;;;;;7.77;84.33;94894.88;5068742;28;20204;-80
2024/03/23 07:16:26;;;;;;;0.90;0.90;;;;;;;7.88;84.22;94894.69;5079877;28;20211;-78
2024/03/23 07:18:52;;;;;;;1.03;0.90;;;;;;;8.13;83.28;94882.78;5067541;28;20188;-79
2024/03/23 07:21:17;;;;;;;1.20;0.90;;;;;;;7.99;84.20;94883.28;5068227;28;20195;-79
2024/03/23 07:23:45;;;;;;;0.80;0.80;;;;;;;8.02;84.38;94882.19;5056863;28;20263;-78
2024/03/23 07:26:11;;;;;;;0.80;0.80;;;;;;;7.80;85.65;94891.19;5074579;28;20721;-81
2024/03/23 07:28:37;;;;;;;0.80;0.70;;;;;;;7.78;86.10;94904.28;5080720;28;20212;-80
2024/03/23 07:31:06;;;;;;;1.10;1.00;;;;;;;7.86;86.14;94913.84;5062658;28;20172;-78
2024/03/23 07:33:32;;;;;;;0.53;0.50;;;;;;;7.77;86.13;94909.56;5091831;28;20177;-78
2024/03/23 07:35:59;;;;;;;0.70;0.70;;;;;;;7.84;85.86;94923.53;5079039;28;20374;-78
2024/03/23 07:38:26;;;;;;;1.00;0.73;;;;;;;7.53;86.33;94941.13;5072762;28;20199;-78
2024/03/23 07:40:55;;;;;;;0.73;0.73;;;;;;;7.44;86.49;94953.13;5074341;28;20183;-78
2024/03/23 07:43:21;;;;;;;2.40;0.77;;;;;;;7.64;86.62;94961.59;5073610;28;20200;-78
2024/03/23 07:45:53;;;;;;;1.73;0.80;;;;;;;7.84;86.29;94967.47;5079731;28;20187;-78
2024/03/23 07:48:18;;;;;;;0.77;0.70;;;;;;;7.94;85.83;94965.66;5081276;28;20300;-79
2024/03/23 07:50:44;;;;;;;0.73;0.73;;;;;;;7.92;85.66;94972.75;5077542;28;20239;-81
2024/03/23 07:53:09;;;;;;;0.83;0.67;;;;;;;8.43;84.29;94981.69;5075452;28;20253;-80
2024/03/23 07:55:34;;;;;;;2.60;0.87;;;;;;;8.45;84.08;94984.94;5081775;28;20858;-80
2024/03/23 07:57:59;;;;;;;1.30;1.20;;;;;;;8.08;82.80;94975.50;5072276;28;20227;-78
2024/03/23 08:00:25;;;;;;;1.33;1.00;;;;;;;8.63;80.56;94972.78;5080684;28;20185;-78
2024/03/23 08:02:51;;;;;;;1.27;1.17;;;;;;;8.85;79.57;94976.69;5072026;28;20222;-79
2024/03/23 08:05:16;;;;;;;2.00;1.23;;;;;;;8.78;79.94;94979.06;5085679;28;20180;-77
2024/03/23 08:07:42;;;;;;;1.60;1.30;;;;;;;9.05;78.55;94979.91;5058305;28;20212;-76
2024/03/23 08:10:07;;;;;;;1.30;1.10;;;;;;;9.24;78.42;94992.66;5051265;28;20284;-77
2024/03/23 08:12:32;;;;;;;1.60;1.50;;;;;;;9.20;77.32;95001.72;5058780;28;20279;-78
2024/03/23 08:14:58;;;;;;;1.20;1.10;;;;;;;9.23;76.89;95001.38;5084729;28;20180;-79
2024/03/23 08:17:23;;;;;;;1.40;1.30;;;;;;;8.96;76.16;95011.88;5054292;28;20189;-78
2024/03/23 08:19:48;;;;;;;2.20;1.20;;;;;;;9.12;76.40;95017.19;5087847;28;20183;-78
2024/03/23 08:22:14;;;;;;;2.23;1.30;;;;;;;8.92;77.15;95024.34;5051511;28;20200;-78
2024/03/23 08:24:39;;;;;;;1.33;1.23;;;;;;;8.55;76.39;95016.72;5090556;28;20188;-78
2024/03/23 08:27:04;;;;;;;1.37;1.20;;;;;;;8.20;78.00;95027.81;5076872;28;20205;-78
2024/03/23 08:29:30;;;;;;;2.77;1.43;;;;;;;8.54;76.51;95045.34;5060031;28;20208;-78
2024/03/23 08:31:55;;;;;;;1.50;1.40;;;;;;;8.70;75.48;95048.91;5076439;28;20191;-78
2024/03/23 08:34:20;;;;;;;1.70;1.60;;;;;;;9.04;75.94;95043.03;5071917;28;20271;-79
2024/03/23 08:36:46;;;;;;;2.30;1.43;;;;;;;9.30;74.55;95043.88;5071008;28;20227;-78
2024/03/23 08:39:11;;;;;;;3.37;1.87;;;;;;;9.08;74.17;95059.88;5062815;28;20181;-78
2024/03/23 08:41:36;;;;;;;2.03;1.90;;;;;;;9.29;73.40;95044.03;5078286;28;20776;-77
2024/03/23 08:44:02;;;;;;;3.43;2.30;;;;;;;9.26;71.90;95058.06;5057598;28;20193;-78
2024/03/23 08:46:27;;;;;;;6.87;2.60;;;;;;;9.22;72.74;95066.31;5060585;28;20768;-79
2024/03/23 08:48:53;;;;;;;4.07;2.37;;;;;;;9.33;71.55;95072.06;5070700;28;20194;-77
2024/03/23 08:51:18;;;;;;;5.23;2.80;;;;;;;8.97;70.27;95063.53;5075401;28;20198;-79
2024/03/23 08:53:43;;;;;;;5.37;2.57;;;;;;;8.83;71.32;95076.19;5050063;28;20188;-79
2024/03/23 08:56:10;;;;;;;8.20;3.33;;;;;;;8.79;70.45;95084.25;5070302;28;20188;-78
2024/03/23 08:58:36;;;;;;;7.80;3.63;;;;;;;8.67;70.56;95084.63;5074912;28;20199;-79
2024/03/23 09:01:08;;;;;;;6.37;3.77;;;;;;;8.43;68.71;95091.16;5073251;28;20180;-78
2024/03/23 09:03:35;;;;;;;9.70;4.10;;;;;;;8.39;67.43;95096.78;5076414;28;20188;-78
2024/03/23 09:06:00;;;;;;;6.07;4.07;;;;;;;8.43;67.32;95101.53;5072285;28;20190;-78
2024/03/23 09:08:26;;;;;;;12.97;4.30;;;;;;;8.66;66.06;95112.28;5055022;28;20200;-78
2024/03/23 09:10:52;;;;;;;12.20;4.73;;;;;;;8.75;63.91;95114.00;5054411;28;20184;-79
2024/03/23 09:13:17;;;;;;;7.03;4.27;;;;;;;8.75;63.36;95124.34;5059739;28;20177;-80
2024/03/23 09:15:50;;;;;;;7.80;4.37;;;;;;;8.67;62.30;95121.69;5062553;28;20195;-79
2024/03/23 09:18:16;;;;;;;9.53;5.13;;;;;;;8.78;61.25;95120.66;5073387;28;20200;-77
2024/03/23 09:20:41;;;;;;;9.37;4.33;;;;;;;8.43;61.11;95116.22;5070890;28;20184;-78
2024/03/23 09:23:07;;;;;;;6.30;4.17;;;;;;;8.53;61.11;95124.75;5060574;28;20200;-79
2024/03/23 09:25:36;;;;;;;10.97;5.00;;;;;;;8.50;60.85;95130.22;5074712;28;20180;-78
2024/03/23 09:28:01;;;;;;;9.57;4.10;;;;;;;8.66;60.67;95138.19;5051614;28;20295;-79
2024/03/23 09:30:26;;;;;;;8.80;4.83;;;;;;;9.01;61.32;95132.22;5081057;28;20204;-79
2024/03/23 09:32:52;;;;;;;9.13;4.10;;;;;;;8.76;61.34;95143.28;5074173;28;20274;-79
2024/03/23 09:35:17;;;;;;;10.33;4.57;;;;;;;8.81;60.19;95146.25;5072342;28;20268;-79
2024/03/23 09:37:42;;;;;;;8.70;4.20;;;;;;;8.59;59.72;95152.66;5048829;28;20200;-79
2024/03/23 09:40:11;;;;;;;10.53;4.43;;;;;;;8.65;59.91;95143.47;5069718;28;20176;-79
2024/03/23 09:42:37;;;;;;;9.33;4.07;;;;;;;9.20;60.49;95144.19;5079380;28;20283;-78
2024/03/23 09:45:05;;;;;;;8.73;4.03;;;;;;;9.32;60.38;95143.00;5063103;28;20205;-79
2024/03/23 09:47:31;;;;;;;8.00;3.80;;;;;;;9.32;59.15;95139.59;5072217;28;20264;-78
2024/03/23 09:49:56;;;;;;;11.70;4.30;;;;;;;9.42;58.69;95136.91;5074293;28;20267;-78
2024/03/23 09:52:21;;;;;;;6.50;3.50;;;;;;;9.57;59.20;95136.22;5069244;28;20264;-79
2024/03/23 09:54:47;;;;;;;8.23;4.50;;;;;;;9.49;58.87;95128.38;5053335;28;20183;-79
2024/03/23 09:57:12;;;;;;;8.40;3.43;;;;;;;9.75;57.56;95132.78;5080594;28;20207;-79
2024/03/23 09:59:37;;;;;;;8.83;4.10;;;;;;;9.56;56.67;95138.97;5093741;28;20195;-79
2024/03/23 10:02:03;;;;;;;10.30;4.13;;;;;;;9.98;56.01;95126.09;5070003;28;20220;-79
2024/03/23 10:04:39;;;;;;;10.30;4.20;;;;;;;9.78;56.91;95122.91;5059251;28;20188;-79
2024/03/23 10:07:12;;;;;;;9.83;4.10;;;;;;;9.96;55.35;95122.03;5068446;28;20208;-79
2024/03/23 10:09:37;;;;;;;6.33;3.63;;;;;;;9.91;55.70;95112.94;5092111;28;20179;-79
2024/03/23 10:12:09;;;;;;;9.27;4.20;;;;;;;9.78;55.57;95125.50;5069254;28;20753;-79
2024/03/23 10:14:34;;;;;;;8.03;3.80;;;;;;;9.18;57.70;95151.28;5064941;28;20212;-79
2024/03/23 10:17:19;;;;;;;12.67;4.50;;;;;;;8.72;60.97;95147.13;5075420;28;20196;-79
2024/03/23 10:19:49;;;;;;;8.73;3.73;;;;;;;8.30;63.04;95150.16;5072933;28;20181;-78
2024/03/23 10:22:22;;;;;;;6.43;4.23;;;;;;;7.94;63.98;95167.31;5054707;28;20185;-78
2024/03/23 10:24:48;;;;;;;10.40;4.87;;;;;;;7.88;66.84;95184.22;5061551;28;20608;-79
2024/03/23 10:27:18;;;;;;;10.07;5.63;;;;;;;7.65;68.71;95206.97;5053049;28;20569;-79
2024/03/23 10:29:47;;;;;;;6.30;3.93;;;;;;;7.05;72.26;95210.63;5054132;28;20187;-78
2024/03/23 10:32:17;;;;;;;6.07;3.70;;;;;;;6.65;73.32;95226.19;5094371;28;20189;-78
2024/03/23 10:34:42;;;;;;;5.33;3.80;;;;;;;6.62;73.83;95210.94;5060276;28;20192;-78
2024/03/23 10:37:08;;;;;;;5.07;3.37;;;;;;;6.73;74.49;95211.69;5082181;28;20220;-78
2024/03/23 10:39:35;;;;;;;6.93;3.40;;;;;;;6.62;74.60;95218.69;5051513;28;20816;-78
2024/03/23 10:42:05;;;;;;;8.30;4.07;;;;;;;6.93;74.16;95194.47;5078329;28;20179;-78
2024/03/23 10:44:31;;;;;;;7.03;3.80;;;;;;;7.13;73.95;95179.78;5073759;28;20221;-78
2024/03/23 10:47:00;;;;;;;5.53;3.10;;;;;;;7.70;73.14;95191.06;5069367;28;20294;-78
2024/03/23 10:49:33;;;;;;;8.67;4.50;;;;;;;7.72;71.96;95175.41;5079317;28;20597;-78
2024/03/23 10:52:02;;;;;;;3.90;2.67;;;;;;;7.65;72.61;95172.56;5061052;28;20267;-78
2024/03/23 10:54:29;;;;;;;5.83;3.03;;;;;;;8.08;72.50;95166.88;5064212;28;20181;-78
2024/03/23 10:57:08;;;;;;;5.00;2.90;;;;;;;8.84;71.22;95168.44;5073744;28;20269;-78
2024/03/23 10:59:33;;;;;;;4.87;2.70;;;;;;;8.55;70.12;95164.25;5077237;28;20184;-78
2024/03/23 11:02:00;;;;;;;6.30;3.40;;;;;;;8.92;70.90;95166.75;5059327;28;20185;-78
2024/03/23 11:04:36;;;;;;;3.90;2.17;;;;;;;8.82;69.63;95171.16;5063568;28;20181;-81
2024/03/23 11:07:24;;;;;;;3.47;2.00;;;;;;;8.74;69.30;95169.31;5081803;28;20303;-78
2024/03/23 11:09:56;;;;;;;2.40;1.83;;;;;;;8.61;69.77;95174.03;5076174;28;20196;-78
2024/03/23 11:12:25;;;;;;;2.87;2.30;;;;;;;8.21;68.09;95166.53;5056723;28;20185;-78
2024/03/23 11:14:52;;;;;;;3.90;1.97;;;;;;;8.03;66.51;95169.06;5079701;28;20188;-78
2024/03/23 11:17:21;;;;;;;4.27;2.20;;;;;;;8.24;67.09;95154.16;5065808;28;20209;-78
2024/03/23 11:20:00;;;;;;;3.13;1.80;;;;;;;7.93;65.66;95150.16;5060084;28;20656;-77
2024/03/23 11:22:37;;;;;;;3.47;2.13;;;;;;;8.12;64.93;95155.28;5086261;28;20184;-78
2024/03/23 11:25:03;;;;;;;5.97;1.33;;;;;;;8.23;61.04;95143.94;5072494;28;20200;-78
2024/03/23 11:27:29;;;;;;;5.33;1.33;;;;;;;8.46;61.50;95159.94;5074251;28;20217;-78
2024/03/23 11:29:54;;;;;;;4.67;1.90;;;;;;;8.62;61.40;95172.25;5088123;28;20276;-78
2024/03/23 11:32:19;;;;;;;5.33;1.70;;;;;;;8.57;59.34;95171.84;5073235;28;20272;-78